createdAt,value
2023-05-04T00:02:07.838Z,100610.27
2023-05-04T00:04:35.120Z,100610.19
2023-05-04T00:07:01.987Z,100616.60
2023-05-04T00:09:29.229Z,100612.86
2023-05-04T00:11:56.158Z,100611.73
2023-05-04T00:14:23.042Z,100609.21
2023-05-04T00:16:50.283Z,100610.29
2023-05-04T00:19:19.619Z,100612.73
2023-05-04T00:21:46.628Z,100610.45
2023-05-04T00:24:13.794Z,100606.13
2023-05-04T00:26:40.725Z,100607.88
2023-05-04T00:29:07.780Z,100609.09
2023-05-04T00:31:34.855Z,100608.63
2023-05-04T00:34:01.947Z,100611.97
2023-05-04T00:36:29.137Z,100614.30
2023-05-04T00:38:56.182Z,100614.73
2023-05-04T00:41:23.265Z,100615.27
2023-05-04T00:43:50.648Z,100620.73
2023-05-04T00:46:17.613Z,100623.73
2023-05-04T00:48:46.757Z,100625.75
2023-05-04T00:51:13.896Z,100622.82
2023-05-04T00:53:40.906Z,100624.73
2023-05-04T00:56:08.014Z,100623.08
2023-05-04T00:58:35.410Z,100625.27
2023-05-04T01:01:02.549Z,100625.05
2023-05-04T01:03:29.820Z,100622.73
2023-05-04T01:06:33.226Z,100624.77
2023-05-04T01:09:05.108Z,100629.26
2023-05-04T01:11:36.192Z,100626.45
2023-05-04T01:14:03.489Z,100622.33
2023-05-04T01:16:30.887Z,100621.56
2023-05-04T01:18:57.971Z,100622.70
2023-05-04T01:21:28.926Z,100622.95
2023-05-04T01:23:56.433Z,100621.83
2023-05-04T01:26:27.655Z,100624.36
2023-05-04T01:29:01.218Z,100624.71
2023-05-04T01:31:28.122Z,100621.79
2023-05-04T01:33:55.190Z,100623.45
2023-05-04T01:36:22.339Z,100624.41
2023-05-04T01:38:49.666Z,100620.70
2023-05-04T01:41:16.990Z,100620.96
2023-05-04T01:43:43.917Z,100624.23
2023-05-04T01:46:11.005Z,100625.42
2023-05-04T01:48:39.094Z,100624.99
2023-05-04T01:51:06.093Z,100631.27
2023-05-04T01:53:32.984Z,100634.15
2023-05-04T01:55:59.987Z,100629.38
2023-05-04T01:58:27.394Z,100628.06
2023-05-04T02:00:54.269Z,100628.15
2023-05-04T02:03:21.666Z,100631.55
2023-05-04T02:05:48.721Z,100632.99
2023-05-04T02:08:16.193Z,100631.73
2023-05-04T02:10:43.078Z,100630.16
2023-05-04T02:13:10.361Z,100632.73
2023-05-04T02:15:37.535Z,100633.33
2023-05-04T02:18:04.390Z,100628.76
2023-05-04T02:20:31.400Z,100632.60
2023-05-04T02:22:58.298Z,100629.39
2023-05-04T02:25:25.915Z,100634.22
2023-05-04T02:27:52.840Z,100635.92
2023-05-04T02:30:19.899Z,100636.66
2023-05-04T02:32:46.826Z,100636.26
2023-05-04T02:35:15.543Z,100636.52
2023-05-04T02:37:42.478Z,100631.77
2023-05-04T02:40:09.873Z,100632.60
2023-05-04T02:42:36.837Z,100628.45
2023-05-04T02:45:04.232Z,100629.65
2023-05-04T02:47:31.714Z,100626.85
2023-05-04T02:50:00.982Z,100628.63
2023-05-04T02:52:27.974Z,100627.38
2023-05-04T02:54:54.995Z,100630.75
2023-05-04T02:57:22.320Z,100629.29
2023-05-04T02:59:49.653Z,100627.50
2023-05-04T03:02:16.668Z,100627.69
2023-05-04T03:04:43.706Z,100628.42
2023-05-04T03:07:11.804Z,100629.30
2023-05-04T03:09:39.018Z,100628.38
2023-05-04T03:12:06.280Z,100626.52
2023-05-04T03:14:33.582Z,100626.98
2023-05-04T03:17:00.949Z,100624.52
2023-05-04T03:19:28.009Z,100628.92
2023-05-04T03:21:55.021Z,100628.35
2023-05-04T03:24:22.206Z,100630.73
2023-05-04T03:26:49.112Z,100631.35
2023-05-04T03:29:16.548Z,100627.04
2023-05-04T03:31:44.170Z,100629.66
2023-05-04T03:34:14.789Z,100632.71
2023-05-04T03:36:41.990Z,100632.67
2023-05-04T03:39:08.963Z,100634.61
2023-05-04T03:41:37.089Z,100636.02
2023-05-04T03:44:04.257Z,100642.98
2023-05-04T03:46:31.546Z,100642.69
2023-05-04T03:48:59.417Z,100644.67
2023-05-04T03:51:27.124Z,100645.70
2023-05-04T03:53:54.845Z,100649.50
2023-05-04T03:56:22.096Z,100644.98
2023-05-04T03:58:49.334Z,100643.99
2023-05-04T04:01:19.272Z,100643.29
2023-05-04T04:03:46.644Z,100642.54
2023-05-04T04:06:13.771Z,100645.08
2023-05-04T04:08:40.745Z,100644.48
2023-05-04T04:11:11.260Z,100645.02
2023-05-04T04:13:38.701Z,100645.55
2023-05-04T04:16:06.705Z,100643.05
2023-05-04T04:18:34.346Z,100645.02
2023-05-04T04:21:01.313Z,100646.80
2023-05-04T04:23:28.204Z,100643.56
2023-05-04T04:25:55.094Z,100646.70
2023-05-04T04:28:22.350Z,100645.09
2023-05-04T04:30:49.354Z,100645.31
2023-05-04T04:33:17.140Z,100642.74
2023-05-04T04:35:44.367Z,100639.66
2023-05-04T04:38:11.682Z,100635.30
2023-05-04T04:40:39.005Z,100633.77
2023-05-04T04:43:05.845Z,100634.23
2023-05-04T04:45:33.867Z,100637.90
2023-05-04T04:48:01.104Z,100635.89
2023-05-04T04:50:29.244Z,100638.14
2023-05-04T04:52:56.489Z,100638.48
2023-05-04T04:55:26.142Z,100640.20
2023-05-04T04:57:53.598Z,100643.19
2023-05-04T05:00:20.725Z,100641.61
2023-05-04T05:02:47.673Z,100638.76
2023-05-04T05:05:14.638Z,100640.39
2023-05-04T05:07:42.491Z,100636.15
2023-05-04T05:10:09.630Z,100634.54
2023-05-04T05:12:36.556Z,100627.08
2023-05-04T05:15:04.662Z,100628.76
2023-05-04T05:17:35.643Z,100628.61
2023-05-04T05:20:03.092Z,100630.11
2023-05-04T05:22:30.527Z,100626.71
2023-05-04T05:24:57.381Z,100624.71
2023-05-04T05:27:24.303Z,100623.27
2023-05-04T05:29:51.250Z,100621.33
2023-05-04T05:32:18.088Z,100623.19
2023-05-04T05:34:45.030Z,100618.32
2023-05-04T05:37:11.838Z,100616.92
2023-05-04T05:39:39.329Z,100620.89
2023-05-04T05:42:06.779Z,100622.02
2023-05-04T05:44:40.161Z,100622.20
2023-05-04T05:47:07.196Z,100622.29
2023-05-04T05:49:35.117Z,100622.54
2023-05-04T05:52:02.018Z,100621.14
2023-05-04T05:54:29.896Z,100623.39
2023-05-04T05:56:56.774Z,100626.95
2023-05-04T05:59:23.604Z,100621.51
2023-05-04T06:01:50.489Z,100622.05
2023-05-04T06:04:17.630Z,100623.26
2023-05-04T06:06:46.140Z,100618.09
2023-05-04T06:09:14.017Z,100621.64
2023-05-04T06:11:41.669Z,100619.41
2023-05-04T06:14:08.777Z,100619.20
2023-05-04T06:16:35.862Z,100622.95
2023-05-04T06:19:03.275Z,100623.33
2023-05-04T06:21:30.252Z,100623.85
2023-05-04T06:23:57.189Z,100626.73
2023-05-04T06:26:24.110Z,100625.58
2023-05-04T06:28:51.111Z,100623.15
2023-05-04T06:31:18.788Z,100627.59
2023-05-04T06:33:46.020Z,100629.95
2023-05-04T06:36:14.391Z,100630.38
2023-05-04T06:38:41.396Z,100628.56
2023-05-04T06:41:08.455Z,100631.70
2023-05-04T06:43:35.786Z,100626.73
2023-05-04T06:46:03.221Z,100627.43
2023-05-04T06:48:31.154Z,100626.67
2023-05-04T06:51:00.207Z,100628.52
2023-05-04T06:53:30.445Z,100632.21
2023-05-04T06:55:57.388Z,100632.80
2023-05-04T06:58:24.355Z,100630.48
2023-05-04T07:00:51.535Z,100631.65
2023-05-04T07:03:19.385Z,100636.08
2023-05-04T07:05:49.040Z,100641.99
2023-05-04T07:08:16.693Z,100638.13
2023-05-04T07:10:44.546Z,100636.75
2023-05-04T07:13:12.222Z,100632.91
2023-05-04T07:15:39.925Z,100630.95
2023-05-04T07:18:07.512Z,100635.56
2023-05-04T07:20:36.944Z,100635.79
2023-05-04T07:23:04.469Z,100635.20
2023-05-04T07:25:32.572Z,100640.33
2023-05-04T07:28:00.011Z,100642.39
2023-05-04T07:30:27.732Z,100637.93
2023-05-04T07:32:56.223Z,100634.02
2023-05-04T07:35:23.752Z,100631.84
2023-05-04T07:37:50.970Z,100627.57
2023-05-04T07:40:18.632Z,100630.30
2023-05-04T07:42:45.952Z,100628.14
2023-05-04T07:45:13.540Z,100634.91
2023-05-04T07:47:41.164Z,100631.27
2023-05-04T07:50:08.480Z,100620.15
2023-05-04T07:52:36.055Z,100623.11
2023-05-04T07:55:03.171Z,100627.96
2023-05-04T07:57:32.862Z,100624.91
2023-05-04T08:00:00.194Z,100624.59
2023-05-04T08:02:27.930Z,100619.89
2023-05-04T08:04:55.059Z,100619.14
2023-05-04T08:07:22.774Z,100621.19
2023-05-04T08:09:50.252Z,100623.55
2023-05-04T08:12:17.709Z,100629.88
2023-05-04T08:14:46.747Z,100629.40
2023-05-04T08:17:13.759Z,100625.15
2023-05-04T08:19:41.076Z,100617.61
2023-05-04T08:22:09.209Z,100614.17
2023-05-04T08:24:37.439Z,100612.72
2023-05-04T08:27:08.759Z,100616.38
2023-05-04T08:29:37.876Z,100609.10
2023-05-04T08:32:06.133Z,100607.98
2023-05-04T08:34:34.355Z,100599.45
2023-05-04T08:37:02.468Z,100602.10
2023-05-04T08:39:30.715Z,100600.42
2023-05-04T08:41:57.686Z,100601.72
2023-05-04T08:44:25.083Z,100599.83
2023-05-04T08:46:54.204Z,100597.19
2023-05-04T08:49:21.550Z,100596.90
2023-05-04T08:51:50.415Z,100596.94
2023-05-04T08:54:18.363Z,100592.91
2023-05-04T08:56:47.214Z,100586.05
2023-05-04T08:59:20.936Z,100584.00
2023-05-04T09:01:50.366Z,100584.09
2023-05-04T09:04:18.364Z,100587.68
2023-05-04T09:06:47.591Z,100583.44
2023-05-04T09:09:14.530Z,100578.39
2023-05-04T09:11:41.906Z,100578.95
2023-05-04T09:14:08.861Z,100578.09
2023-05-04T09:16:36.666Z,100584.77
2023-05-04T09:19:04.190Z,100578.98
2023-05-04T09:21:31.698Z,100579.20
2023-05-04T09:23:59.017Z,100576.77
2023-05-04T09:26:32.409Z,100575.11
2023-05-04T09:29:13.598Z,100573.67
2023-05-04T09:31:44.377Z,100571.91
2023-05-04T09:34:11.629Z,100569.45
2023-05-04T09:36:38.873Z,100565.66
2023-05-04T09:39:11.447Z,100564.48
2023-05-04T09:41:38.543Z,100567.33
2023-05-04T09:44:05.437Z,100563.22
2023-05-04T09:46:32.702Z,100570.64
2023-05-04T09:49:00.425Z,100569.51
2023-05-04T09:51:27.949Z,100569.41
2023-05-04T09:53:55.016Z,100566.66
2023-05-04T09:56:32.331Z,100567.16
2023-05-04T09:58:59.743Z,100562.77
2023-05-04T10:01:28.052Z,100563.36
2023-05-04T10:03:55.090Z,100549.11
2023-05-04T10:06:22.904Z,100546.16
2023-05-04T10:08:50.392Z,100548.09
2023-05-04T10:11:19.429Z,100542.63
2023-05-04T10:13:47.764Z,100545.32
2023-05-04T10:16:33.928Z,100549.31
2023-05-04T10:19:04.002Z,100547.75
2023-05-04T10:21:44.335Z,100546.81
2023-05-04T10:24:29.601Z,100541.83
2023-05-04T10:27:00.121Z,100536.55
2023-05-04T10:29:28.804Z,100537.54
2023-05-04T10:31:57.290Z,100536.70
2023-05-04T10:34:29.152Z,100534.80
2023-05-04T10:36:56.572Z,100536.98
2023-05-04T10:39:25.023Z,100533.31
2023-05-04T10:41:59.527Z,100524.65
2023-05-04T10:44:27.454Z,100526.89
2023-05-04T10:47:07.723Z,100527.19
2023-05-04T10:49:34.972Z,100519.84
2023-05-04T10:52:05.414Z,100524.73
2023-05-04T10:54:32.931Z,100523.89
2023-05-04T10:58:06.161Z,100505.25
2023-05-04T11:00:37.816Z,100516.48
2023-05-04T11:03:07.524Z,100518.21
2023-05-04T11:05:49.260Z,100511.20
2023-05-04T11:08:27.630Z,100504.70
2023-05-04T11:11:06.968Z,100499.98
2023-05-04T11:13:36.083Z,100495.88
2023-05-04T11:16:03.404Z,100497.66
2023-05-04T11:18:34.307Z,100493.32
2023-05-04T11:21:01.826Z,100495.58
2023-05-04T11:23:30.528Z,100489.48
2023-05-04T11:25:57.787Z,100491.56
2023-05-04T11:28:36.773Z,100492.42
2023-05-04T11:31:17.435Z,100493.61
2023-05-04T11:33:52.529Z,100481.35
2023-05-04T11:36:19.911Z,100479.46
2023-05-04T11:38:47.699Z,100481.27
2023-05-04T11:41:15.460Z,100483.44
2023-05-04T11:43:43.880Z,100478.45
2023-05-04T11:46:11.633Z,100468.96
2023-05-04T11:48:39.364Z,100469.53
2023-05-04T11:51:07.001Z,100473.91
2023-05-04T11:53:41.879Z,100466.63
2023-05-04T11:56:09.894Z,100463.18
2023-05-04T11:58:37.538Z,100459.55
2023-05-04T12:01:05.069Z,100458.23
2023-05-04T12:06:05.218Z,100449.59
2023-05-04T12:08:42.296Z,100449.77
2023-05-04T12:11:10.344Z,100440.40
2023-05-04T12:13:37.604Z,100440.92
2023-05-04T12:16:18.729Z,100445.34
2023-05-04T12:18:48.135Z,100440.14
2023-05-04T12:21:19.770Z,100434.48
2023-05-04T12:23:47.281Z,100438.04
2023-05-04T12:26:16.284Z,100436.39
2023-05-04T12:28:45.889Z,100429.66
2023-05-04T12:31:13.412Z,100429.02
2023-05-04T12:33:40.733Z,100424.94
2023-05-04T12:36:08.411Z,100417.18
2023-05-04T12:38:36.625Z,100412.85
2023-05-04T12:41:04.694Z,100422.21
2023-05-04T12:43:33.343Z,100418.77
2023-05-04T12:46:00.661Z,100416.26
2023-05-04T12:48:29.256Z,100409.51
2023-05-04T12:50:56.900Z,100413.63
2023-05-04T12:53:28.122Z,100413.22
2023-05-04T12:55:56.393Z,100410.89
2023-05-04T12:58:23.695Z,100405.16
2023-05-04T13:00:51.669Z,100399.56
2023-05-04T13:03:19.455Z,100396.73
2023-05-04T13:05:47.657Z,100391.42
2023-05-04T13:08:14.833Z,100383.95
2023-05-04T13:10:42.798Z,100383.51
2023-05-04T13:13:10.352Z,100381.55
2023-05-04T13:15:37.721Z,100378.80
2023-05-04T13:18:04.902Z,100378.23
2023-05-04T13:20:34.296Z,100376.15
2023-05-04T13:23:01.716Z,100377.45
2023-05-04T13:25:28.828Z,100373.23
2023-05-04T13:27:56.257Z,100366.30
2023-05-04T13:30:23.383Z,100360.02
2023-05-04T13:32:51.248Z,100353.79
2023-05-04T13:35:18.540Z,100344.55
2023-05-04T13:37:46.025Z,100349.45
2023-05-04T13:40:14.178Z,100348.52
2023-05-04T13:42:41.360Z,100343.33
2023-05-04T13:45:09.289Z,100342.02
2023-05-04T13:47:37.343Z,100344.86
2023-05-04T13:50:05.319Z,100349.05
2023-05-04T13:52:32.705Z,100341.52
2023-05-04T13:55:00.007Z,100338.85
2023-05-04T13:57:30.694Z,100343.84
2023-05-04T14:00:05.826Z,100342.61
2023-05-04T14:02:41.047Z,100339.54
2023-05-04T14:05:09.405Z,100338.77
2023-05-04T14:07:38.702Z,100340.08
2023-05-04T14:10:06.668Z,100339.73
2023-05-04T14:12:35.205Z,100336.84
2023-05-04T14:15:02.664Z,100341.39
2023-05-04T14:17:30.023Z,100344.55
2023-05-04T14:19:59.083Z,100341.77
2023-05-04T14:22:26.111Z,100339.52
2023-05-04T14:24:53.313Z,100333.85
2023-05-04T14:27:21.379Z,100329.35
2023-05-04T14:29:48.489Z,100329.79
2023-05-04T14:32:15.845Z,100327.59
2023-05-04T14:34:43.272Z,100322.51
2023-05-04T14:37:10.488Z,100319.80
2023-05-04T14:39:39.682Z,100317.70
2023-05-04T14:42:06.711Z,100324.34
2023-05-04T14:44:34.396Z,100319.02
2023-05-04T14:47:05.493Z,100322.19
2023-05-04T14:49:37.048Z,100319.33
2023-05-04T14:52:05.590Z,100318.02
2023-05-04T14:54:32.819Z,100316.98
2023-05-04T14:57:00.264Z,100313.61
2023-05-04T14:59:27.681Z,100310.21
2023-05-04T15:01:55.786Z,100307.38
2023-05-04T15:04:22.851Z,100308.30
2023-05-04T15:06:50.368Z,100306.27
2023-05-04T15:09:18.298Z,100300.36
2023-05-04T15:11:46.305Z,100304.77
2023-05-04T15:14:13.419Z,100307.48
2023-05-04T15:16:41.518Z,100299.56
2023-05-04T15:19:08.784Z,100300.41
2023-05-04T15:21:36.487Z,100300.16
2023-05-04T15:24:03.879Z,100300.52
2023-05-04T15:26:31.308Z,100298.04
2023-05-04T15:35:36.585Z,100294.20
2023-05-04T15:38:03.137Z,100284.69
2023-05-04T15:40:30.227Z,100284.31
2023-05-04T15:42:58.463Z,100281.04
2023-05-04T15:45:25.400Z,100278.50
2023-05-04T15:47:53.711Z,100275.77
2023-05-04T15:50:20.841Z,100279.02
2023-05-04T15:52:47.274Z,100275.02
2023-05-04T15:55:25.536Z,100274.38
2023-05-04T15:57:53.416Z,100272.98
2023-05-04T16:00:21.143Z,100278.55
2023-05-04T16:02:48.502Z,100276.09
2023-05-04T16:05:15.172Z,100279.41
2023-05-04T16:07:42.271Z,100275.02
2023-05-04T16:10:10.019Z,100272.16
2023-05-04T16:12:39.259Z,100276.09
2023-05-04T16:15:06.848Z,100271.86
2023-05-04T16:17:34.745Z,100274.61
2023-05-04T16:20:02.743Z,100268.64
2023-05-04T16:22:30.584Z,100268.86
2023-05-04T16:24:57.291Z,100270.59
2023-05-04T16:34:40.213Z,100273.79
2023-05-04T16:37:07.883Z,100276.39
2023-05-04T16:39:37.990Z,100273.12
2023-05-04T16:42:04.949Z,100278.98
2023-05-04T16:44:32.278Z,100278.83
2023-05-04T16:46:59.900Z,100277.83
2023-05-04T16:49:26.846Z,100280.53
2023-05-04T16:51:55.300Z,100282.77
2023-05-04T16:54:23.598Z,100281.21
2023-05-04T16:56:51.705Z,100284.75
2023-05-04T16:59:18.755Z,100282.26
2023-05-04T17:01:46.762Z,100284.92
2023-05-04T17:04:14.168Z,100284.24
2023-05-04T17:06:41.093Z,100283.42
2023-05-04T17:09:09.311Z,100282.60
2023-05-04T17:11:36.987Z,100283.92
2023-05-04T17:14:03.496Z,100284.67
2023-05-04T17:16:30.324Z,100284.98
2023-05-04T17:18:56.998Z,100285.32
2023-05-04T17:21:24.841Z,100288.61
2023-05-04T17:23:52.358Z,100287.58
2023-05-04T17:26:19.269Z,100288.41
2023-05-04T17:28:46.537Z,100287.44
2023-05-04T17:31:13.620Z,100291.17
2023-05-04T17:33:40.540Z,100286.48
2023-05-04T17:36:07.583Z,100285.48
2023-05-04T17:38:34.745Z,100287.73
2023-05-04T17:41:01.828Z,100288.74
2023-05-04T17:43:28.943Z,100288.34
2023-05-04T17:45:56.029Z,100287.36
2023-05-04T17:48:23.677Z,100289.96
2023-05-04T17:50:50.611Z,100291.41
2023-05-04T17:53:17.657Z,100291.29
2023-05-04T17:55:45.138Z,100292.02
2023-05-04T17:58:12.143Z,100289.95
2023-05-04T18:00:39.401Z,100296.33
2023-05-04T18:03:06.577Z,100294.84
2023-05-04T18:05:33.908Z,100291.50
2023-05-04T18:08:00.484Z,100291.61
2023-05-04T18:10:27.077Z,100291.93
2023-05-04T18:12:56.132Z,100293.84
2023-05-04T18:15:24.067Z,100298.86
2023-05-04T18:17:50.858Z,100297.41
2023-05-04T18:20:17.919Z,100299.60
2023-05-04T18:22:45.166Z,100301.66
2023-05-04T18:25:13.244Z,100303.00
2023-05-04T18:27:39.793Z,100305.55
2023-05-04T18:30:08.486Z,100304.21
2023-05-04T18:32:36.328Z,100302.36
2023-05-04T18:35:03.557Z,100300.45
2023-05-04T18:37:31.085Z,100303.05
2023-05-04T18:39:58.170Z,100307.07
2023-05-04T18:42:25.086Z,100306.67
2023-05-04T18:44:52.486Z,100311.95
2023-05-04T18:47:19.229Z,100306.88
2023-05-04T18:49:52.648Z,100307.35
2023-05-04T18:52:19.113Z,100306.71
2023-05-04T18:54:46.390Z,100304.77
2023-05-04T18:57:13.781Z,100309.29
2023-05-04T18:59:40.444Z,100308.56
2023-05-04T19:02:07.877Z,100306.66
2023-05-04T19:04:35.595Z,100314.35
2023-05-04T19:07:03.796Z,100308.46
2023-05-04T19:09:31.225Z,100306.14
2023-05-04T19:11:58.423Z,100305.95
2023-05-04T19:14:28.794Z,100304.01
2023-05-04T19:16:57.460Z,100302.77
2023-05-04T19:19:26.315Z,100300.02
2023-05-04T19:21:53.326Z,100299.35
2023-05-04T19:24:20.477Z,100294.48
2023-05-04T19:26:46.852Z,100295.77
2023-05-04T19:29:13.729Z,100299.56
2023-05-04T19:31:40.778Z,100299.44
2023-05-04T19:34:07.361Z,100296.98
2023-05-04T19:36:34.317Z,100293.91
2023-05-04T19:39:01.824Z,100292.61
2023-05-04T19:41:28.802Z,100289.56
2023-05-04T19:43:55.183Z,100287.23
2023-05-04T19:46:21.951Z,100285.08
2023-05-04T19:48:48.409Z,100283.95
2023-05-04T19:51:15.355Z,100286.09
2023-05-04T19:53:42.300Z,100282.80
2023-05-04T19:56:09.057Z,100279.02
2023-05-04T19:58:36.099Z,100279.48
2023-05-04T20:01:02.968Z,100283.79
2023-05-04T20:03:30.177Z,100282.40
2023-05-04T20:05:57.642Z,100282.77
2023-05-04T20:08:24.533Z,100276.90
2023-05-04T20:10:51.887Z,100276.98
2023-05-04T20:13:18.922Z,100273.27
2023-05-04T20:15:46.435Z,100274.85
2023-05-04T20:18:13.561Z,100274.39
2023-05-04T20:20:40.548Z,100271.33
2023-05-04T20:23:07.206Z,100272.59
2023-05-04T20:25:33.832Z,100267.72
2023-05-04T20:28:00.362Z,100265.49
2023-05-04T20:30:28.429Z,100262.74
2023-05-04T20:32:55.094Z,100258.38
2023-05-04T20:35:21.796Z,100257.07
2023-05-04T20:37:48.916Z,100253.44
2023-05-04T20:40:17.344Z,100253.33
2023-05-04T20:42:43.864Z,100256.13
2023-05-04T20:45:10.497Z,100254.79
2023-05-04T20:47:38.085Z,100251.65
2023-05-04T20:50:07.360Z,100247.17
2023-05-04T20:52:34.345Z,100245.80
2023-05-04T20:55:01.062Z,100249.15
2023-05-04T20:57:27.766Z,100247.55
2023-05-04T20:59:56.099Z,100249.91
2023-05-04T21:02:22.703Z,100243.64
2023-05-04T21:04:49.952Z,100239.45
2023-05-04T21:07:17.063Z,100237.95
2023-05-04T21:09:43.647Z,100240.52
2023-05-04T21:12:10.475Z,100237.94
2023-05-04T21:14:36.913Z,100237.95
2023-05-04T21:17:03.542Z,100240.89
2023-05-04T21:19:30.225Z,100241.51
2023-05-04T21:21:56.614Z,100243.52
2023-05-04T21:24:22.801Z,100242.85
2023-05-04T21:26:49.711Z,100243.91
2023-05-04T21:29:16.192Z,100247.24
2023-05-04T21:31:42.504Z,100244.13
2023-05-04T21:34:08.887Z,100244.64
2023-05-04T21:36:38.430Z,100248.61
2023-05-04T21:39:04.696Z,100244.37
2023-05-04T21:41:30.996Z,100246.08
2023-05-04T21:43:57.466Z,100246.98
2023-05-04T21:46:23.752Z,100250.11
2023-05-04T21:48:51.212Z,100246.65
2023-05-04T21:51:19.342Z,100246.70
2023-05-04T21:53:47.125Z,100243.61
2023-05-04T21:56:13.365Z,100245.73
2023-05-04T21:58:40.100Z,100245.75
2023-05-04T22:01:07.276Z,100243.30
2023-05-04T22:03:34.218Z,100240.91
2023-05-04T22:06:01.017Z,100239.00
2023-05-04T22:08:27.877Z,100240.98
2023-05-04T22:10:55.309Z,100239.70
2023-05-04T22:13:21.987Z,100235.23
2023-05-04T22:15:50.248Z,100229.84
2023-05-04T22:18:17.513Z,100230.04
2023-05-04T22:20:43.847Z,100228.60
2023-05-04T22:23:10.502Z,100225.45
2023-05-04T22:25:36.965Z,100222.61
2023-05-04T22:28:03.242Z,100223.19
2023-05-04T22:30:29.527Z,100215.67
2023-05-04T22:32:56.574Z,100212.22
2023-05-04T22:35:22.921Z,100214.66
2023-05-04T22:37:49.771Z,100209.36
2023-05-04T22:40:16.184Z,100207.46
2023-05-04T22:42:44.292Z,100206.95
2023-05-04T22:45:12.451Z,100204.75
2023-05-04T22:47:39.224Z,100207.84
2023-05-04T22:50:06.548Z,100202.96
2023-05-04T22:52:33.318Z,100201.27
2023-05-04T22:54:59.562Z,100199.42
2023-05-04T22:57:26.018Z,100199.46
2023-05-04T22:59:52.263Z,100202.74
2023-05-04T23:02:18.502Z,100199.69
2023-05-04T23:04:44.730Z,100195.70
2023-05-04T23:07:11.377Z,100193.46
2023-05-04T23:09:46.686Z,100188.70
2023-05-04T23:16:08.343Z,100181.95
2023-05-04T23:18:35.955Z,100181.54
2023-05-04T23:21:03.044Z,100174.19
2023-05-04T23:23:30.394Z,100167.72
2023-05-04T23:25:57.353Z,100165.23
2023-05-04T23:28:24.829Z,100164.70
2023-05-04T23:30:52.147Z,100162.40
2023-05-04T23:33:19.395Z,100163.13
2023-05-04T23:35:46.690Z,100160.16
2023-05-04T23:38:14.007Z,100158.06
2023-05-04T23:40:41.108Z,100154.34
2023-05-04T23:43:08.619Z,100150.39
2023-05-04T23:45:35.828Z,100146.09
2023-05-04T23:48:03.263Z,100142.98
2023-05-04T23:50:30.675Z,100141.89
2023-05-04T23:52:57.977Z,100143.40
2023-05-04T23:55:25.080Z,100138.53
2023-05-04T23:57:53.109Z,100133.42
